createdAt,value
2019-06-01T00:00:54.136Z,97694.83
2019-06-01T00:05:59.385Z,97696.36
2019-06-01T00:11:04.119Z,97690.59
2019-06-01T00:16:08.769Z,97694.55
2019-06-01T00:21:13.603Z,97696.22
2019-06-01T00:26:18.353Z,97678.30
2019-06-01T00:31:22.894Z,97682.13
2019-06-01T00:36:27.529Z,97681.87
2019-06-01T00:41:32.159Z,97675.70
2019-06-01T00:46:36.915Z,97679.28
2019-06-01T00:51:42.749Z,97676.40
2019-06-01T00:56:47.739Z,97682.05
2019-06-01T01:01:52.577Z,97677.17
2019-06-01T01:06:57.427Z,97675.22
2019-06-01T01:12:02.063Z,97678.02
2019-06-01T01:17:06.806Z,97664.20
2019-06-01T01:22:11.555Z,97659.63
2019-06-01T01:27:16.297Z,97651.04
2019-06-01T01:32:21.039Z,97647.84
2019-06-01T01:37:25.782Z,97642.04
2019-06-01T01:42:30.514Z,97635.95
2019-06-01T01:47:35.158Z,97635.23
2019-06-01T01:52:39.911Z,97635.46
2019-06-01T01:57:44.552Z,97626.38
2019-06-01T02:02:49.199Z,97631.79
2019-06-01T02:07:54.868Z,97627.66
2019-06-01T02:13:00.007Z,97629.18
2019-06-01T02:18:05.154Z,97626.07
2019-06-01T02:23:09.799Z,97625.78
2019-06-01T02:28:14.551Z,97621.44
2019-06-01T02:33:19.192Z,97627.02
2019-06-01T02:38:23.822Z,97623.52
2019-06-01T02:43:28.474Z,97629.38
2019-06-01T02:48:34.247Z,97627.70
2019-06-01T02:53:38.875Z,97615.14
2019-06-01T02:58:43.526Z,97619.06
2019-06-01T03:03:48.267Z,97619.77
2019-06-01T03:08:53.411Z,97625.02
2019-06-01T03:14:00.325Z,97628.00
2019-06-01T03:19:05.973Z,97636.36
2019-06-01T03:24:13.026Z,97633.27
2019-06-01T03:29:19.259Z,97631.10
2019-06-01T03:34:23.998Z,97634.11
2019-06-01T03:39:28.642Z,97632.67
2019-06-01T03:44:33.277Z,97630.26
2019-06-01T03:49:37.911Z,97635.55
2019-06-01T03:54:42.664Z,97639.22
2019-06-01T03:59:47.409Z,97627.09
2019-06-01T04:04:52.153Z,97628.07
2019-06-01T04:09:57.139Z,97629.05
2019-06-01T04:15:08.482Z,97638.07
2019-06-01T04:20:08.549Z,97639.94
2019-06-01T04:25:13.276Z,97639.16
2019-06-01T04:30:19.562Z,97630.16
2019-06-01T04:35:24.201Z,97626.23
2019-06-01T04:40:28.941Z,97626.92
2019-06-01T04:45:34.097Z,97627.66
2019-06-01T04:50:38.735Z,97624.59
2019-06-01T04:55:45.036Z,97628.05
2019-06-01T05:00:51.600Z,97627.05
2019-06-01T05:05:58.086Z,97628.34
2019-06-01T05:11:05.729Z,97627.14
2019-06-01T05:16:13.383Z,97623.41
2019-06-01T05:21:23.006Z,97631.49
2019-06-01T05:26:28.160Z,97629.19
2019-06-01T05:31:34.401Z,97620.36
2019-06-01T05:36:39.088Z,97620.26
2019-06-01T05:41:44.123Z,97627.88
2019-06-01T05:46:49.149Z,97630.80
2019-06-01T05:51:55.368Z,97630.17
2019-06-01T05:57:00.062Z,97632.66
2019-06-01T06:02:05.697Z,97629.63
2019-06-01T06:07:14.729Z,97621.88
2019-06-01T06:12:22.386Z,97624.79
2019-06-01T06:17:28.731Z,97620.08
2019-06-01T06:22:33.299Z,97617.25
2019-06-01T06:27:39.690Z,97608.50
2019-06-01T06:38:45.602Z,97607.68
2019-06-01T06:43:50.339Z,97609.20
2019-06-01T06:48:56.525Z,97609.17
2019-06-01T06:54:06.739Z,97614.86
2019-06-01T06:59:11.958Z,97614.03
2019-06-01T07:04:19.241Z,97609.42
2019-06-01T07:09:28.208Z,97620.86
2019-06-01T07:14:33.352Z,97621.65
2019-06-01T07:19:39.631Z,97619.77
2019-06-01T07:24:44.377Z,97630.02
2019-06-01T07:29:51.460Z,97624.08
2019-06-01T07:35:00.951Z,97626.50
2019-06-01T07:40:13.642Z,97617.35
2019-06-01T07:51:29.734Z,97614.13
2019-06-01T07:56:34.638Z,97617.22
2019-06-01T08:01:39.534Z,97614.69
2019-06-01T08:06:47.756Z,97617.55
2019-06-01T08:11:52.470Z,97614.23
2019-06-01T08:16:58.790Z,97617.55
2019-06-01T08:22:04.837Z,97610.67
2019-06-01T08:27:11.848Z,97610.00
2019-06-01T08:32:17.967Z,97609.09
2019-06-01T08:37:23.500Z,97618.88
2019-06-01T08:42:29.469Z,97620.48
2019-06-01T08:47:34.711Z,97609.66
2019-06-01T08:52:41.089Z,97610.84
2019-06-01T08:57:46.015Z,97616.08
2019-06-01T09:02:52.921Z,97615.91
2019-06-01T09:07:59.009Z,97617.23
2019-06-01T09:13:03.779Z,97617.28
2019-06-01T09:18:08.668Z,97615.80
2019-06-01T09:23:14.846Z,97613.01
2019-06-01T09:28:20.130Z,97602.88
2019-06-01T09:33:26.043Z,97606.33
2019-06-01T09:38:31.592Z,97605.89
2019-06-01T09:43:37.198Z,97603.97
2019-06-01T09:48:42.042Z,97589.58
2019-06-01T09:53:47.056Z,97585.64
2019-06-01T09:58:52.161Z,97576.56
2019-06-01T10:03:58.214Z,97575.33
2019-06-01T10:09:04.101Z,97568.47
2019-06-01T10:14:10.488Z,97565.92
2019-06-01T10:19:15.341Z,97563.65
2019-06-01T10:24:21.933Z,97556.49
2019-06-01T10:29:28.524Z,97546.94
2019-06-01T10:34:35.660Z,97550.17
2019-06-01T10:39:41.488Z,97542.40
2019-06-01T10:44:46.353Z,97539.71
2019-06-01T10:49:51.178Z,97542.26
2019-06-01T10:54:56.025Z,97531.86
2019-06-01T11:00:01.056Z,97526.80
2019-06-01T11:05:08.094Z,97528.38
2019-06-01T11:10:14.554Z,97527.30
2019-06-01T11:15:23.290Z,97522.28
2019-06-01T11:20:29.362Z,97524.73
2019-06-01T11:25:35.570Z,97514.67
2019-06-01T11:30:41.801Z,97512.58
2019-06-01T11:35:47.798Z,97517.02
2019-06-01T11:40:53.936Z,97519.24
2019-06-01T11:46:00.037Z,97509.08
2019-06-01T11:51:05.019Z,97509.22
2019-06-01T11:56:09.862Z,97508.61
2019-06-01T12:01:14.591Z,97505.11
2019-06-01T12:06:19.954Z,97506.23
2019-06-01T12:11:25.654Z,97502.86
2019-06-01T12:16:31.905Z,97501.56
2019-06-01T12:21:38.839Z,97508.54
2019-06-01T12:26:43.991Z,97501.28
2019-06-01T12:31:48.796Z,97497.71
2019-06-01T12:36:54.804Z,97502.26
2019-06-01T12:41:59.610Z,97496.64
2019-06-01T12:47:04.358Z,97504.78
2019-06-01T12:52:09.301Z,97501.04
2019-06-01T12:57:14.397Z,97490.47
2019-06-01T13:02:19.201Z,97494.67
2019-06-01T13:07:23.949Z,97496.88
2019-06-01T13:12:29.545Z,97501.74
2019-06-01T13:17:34.265Z,97488.11
2019-06-01T13:22:39.111Z,97475.80
2019-06-01T13:27:46.381Z,97483.46
2019-06-01T13:32:52.747Z,97475.48
2019-06-01T13:38:11.921Z,97469.96
2019-06-01T13:43:05.551Z,97470.39
2019-06-01T13:48:10.405Z,97465.48
2019-06-01T13:53:15.586Z,97465.00
2019-06-01T13:58:21.073Z,97458.95
2019-06-01T14:03:25.861Z,97468.02
2019-06-01T14:08:32.349Z,97472.23
2019-06-01T14:13:37.294Z,97471.19
2019-06-01T14:18:43.685Z,97473.53
2019-06-01T14:23:50.126Z,97475.52
2019-06-01T14:28:56.962Z,97466.59
2019-06-01T14:34:02.821Z,97462.77
2019-06-01T14:39:08.057Z,97461.33
2019-06-01T14:44:12.715Z,97472.97
2019-06-01T14:49:17.357Z,97458.41
2019-06-01T14:54:22.019Z,97454.13
2019-06-01T14:59:26.775Z,97462.14
2019-06-01T15:04:35.791Z,97463.63
2019-06-01T15:09:40.531Z,97459.90
2019-06-01T15:14:45.486Z,97460.89
2019-06-01T15:19:54.080Z,97448.98
2019-06-01T15:24:58.987Z,97449.66
2019-06-01T15:30:05.453Z,97456.98
2019-06-01T15:35:10.609Z,97448.80
2019-06-01T15:40:15.348Z,97446.36
2019-06-01T15:45:20.713Z,97447.34
2019-06-01T15:50:26.786Z,97453.11
2019-06-01T15:55:31.626Z,97446.28
2019-06-01T16:00:36.382Z,97453.44
2019-06-01T16:05:41.218Z,97455.59
2019-06-01T16:10:48.523Z,97468.94
2019-06-01T16:15:53.329Z,97470.98
2019-06-01T16:20:58.325Z,97467.59
2019-06-01T16:26:15.456Z,97466.64
2019-06-01T16:31:10.483Z,97459.48
2019-06-01T16:36:15.404Z,97457.89
2019-06-01T16:41:20.123Z,97469.05
2019-06-01T16:46:25.111Z,97469.91
2019-06-01T16:51:50.352Z,97466.11
2019-06-01T16:56:58.032Z,97479.88
2019-06-01T17:02:03.398Z,97487.02
2019-06-01T17:07:09.778Z,97485.04
2019-06-01T17:12:15.348Z,97485.13
2019-06-01T17:17:21.830Z,97494.04
2019-06-01T17:22:26.476Z,97499.50
2019-06-01T17:27:31.115Z,97497.57
2019-06-01T17:32:35.758Z,97495.52
2019-06-01T17:37:40.358Z,97500.82
2019-06-01T17:42:45.148Z,97505.57
2019-06-01T17:47:49.824Z,97504.78
2019-06-01T17:52:56.158Z,97500.23
2019-06-01T17:58:01.566Z,97512.98
2019-06-01T18:03:07.965Z,97505.54
2019-06-01T18:08:13.691Z,97512.40
2019-06-01T18:13:18.625Z,97510.80
2019-06-01T18:18:23.266Z,97514.38
2019-06-01T18:23:29.239Z,97525.97
2019-06-01T18:28:34.359Z,97525.25
2019-06-01T18:33:39.604Z,97545.15
2019-06-01T18:38:44.600Z,97556.41
2019-06-01T18:43:49.461Z,97563.89
2019-06-01T18:48:55.215Z,97568.73
2019-06-01T18:54:01.382Z,97568.06
2019-06-01T18:59:08.536Z,97564.06
2019-06-01T19:04:13.849Z,97566.59
2019-06-01T19:09:21.850Z,97562.05
2019-06-01T19:14:26.926Z,97565.45
2019-06-01T19:19:31.671Z,97566.65
2019-06-01T19:24:36.406Z,97572.08
2019-06-01T19:29:41.558Z,97577.80
2019-06-01T19:34:47.838Z,97576.87
2019-06-01T19:39:52.684Z,97576.77
2019-06-01T19:44:57.862Z,97584.88
2019-06-01T19:50:02.765Z,97593.56
2019-06-01T19:55:08.943Z,97602.94
2019-06-01T20:00:18.427Z,97610.20
2019-06-01T20:05:23.415Z,97604.06
2019-06-01T20:10:28.421Z,97610.91
2019-06-01T20:15:33.802Z,97624.46
2019-06-01T20:20:39.379Z,97625.30
2019-06-01T20:25:46.199Z,97627.70
2019-06-01T20:30:52.106Z,97625.31
2019-06-01T20:35:58.314Z,97621.88
2019-06-01T20:41:03.136Z,97628.23
2019-06-01T20:46:07.917Z,97622.03
2019-06-01T20:51:13.161Z,97615.80
2019-06-01T20:56:19.350Z,97620.84
2019-06-01T21:01:26.006Z,97632.86
2019-06-01T21:06:31.859Z,97628.75
2019-06-01T21:11:37.579Z,97633.80
2019-06-01T21:16:43.805Z,97624.84
2019-06-01T21:21:49.897Z,97619.44
2019-06-01T21:26:56.267Z,97634.59
2019-06-01T21:32:01.518Z,97634.70
2019-06-01T21:37:06.271Z,97649.14
2019-06-01T21:42:11.377Z,97649.88
2019-06-01T21:47:17.599Z,97649.38
2019-06-01T21:52:22.438Z,97648.77
2019-06-01T21:57:28.614Z,97658.07
2019-06-01T22:02:34.019Z,97656.25
2019-06-01T22:07:38.922Z,97649.72
2019-06-01T22:12:44.909Z,97634.92
2019-06-01T22:17:51.040Z,97633.35
2019-06-01T22:22:55.736Z,97641.27
2019-06-01T22:28:00.353Z,97640.85
2019-06-01T22:33:06.634Z,97636.44
2019-06-01T22:38:12.219Z,97627.98
2019-06-01T22:43:17.047Z,97630.81
2019-06-01T22:48:22.499Z,97625.56
2019-06-01T22:53:28.335Z,97624.06
2019-06-01T22:58:33.632Z,97638.05
2019-06-01T23:03:38.372Z,97633.89
2019-06-01T23:08:43.017Z,97639.33
2019-06-01T23:13:53.285Z,97632.51
2019-06-01T23:18:53.823Z,97625.92
2019-06-01T23:23:58.600Z,97628.64
2019-06-01T23:29:03.325Z,97622.98
2019-06-01T23:34:08.067Z,97616.98
2019-06-01T23:39:12.813Z,97605.02
2019-06-01T23:44:18.167Z,97613.27
2019-06-01T23:49:23.113Z,97658.42
2019-06-01T23:54:29.438Z,97652.07
2019-06-01T23:59:34.396Z,97655.03
